Terminal Aerodrome Forecast
Issued by NWS

Home | Current Version | Previous Version | Text Only | Print | Product List | Glossary On
Versions: 1 2 3 4 5 6 7 8 9 10 11 12 13 14 15 16 17 18 19 20 21 22 23 24 25 26 27 28 29 30 31 32 33 34 35 36
000
FTUS43 KDMX 241934 AAA
TAFMCW
TAF AMD
KMCW 241934Z 2420/2518 12015KT 1 1/2SM -RA BKN005 OVC015
     FM242200 12012KT 2SM BR VCSH OVC008
     FM250300 13009KT 3SM BR VCSH OVC009
     FM250600 09004KT 2SM RA BR OVC007
     FM251500 26012KT 3SM -RA BR OVC007=

USA.gov is the U.S. government's official web portal to all federal, state and local government web resources and services.